createdAt,value
2018-06-23T00:00:28.062Z,65.79
2018-06-23T00:01:28.082Z,65.50
2018-06-23T00:02:28.100Z,65.40
2018-06-23T00:03:28.120Z,65.50
2018-06-23T00:04:28.143Z,65.59
2018-06-23T00:05:28.178Z,65.20
2018-06-23T00:06:28.181Z,64.53
2018-06-23T00:07:28.203Z,64.82
2018-06-23T00:08:28.228Z,65.59
2018-06-23T00:09:28.248Z,65.88
2018-06-23T00:10:28.264Z,66.95
2018-06-23T00:11:28.291Z,67.53
2018-06-23T00:12:28.305Z,66.66
2018-06-23T00:13:28.339Z,66.75
2018-06-23T00:14:28.346Z,66.75
2018-06-23T00:15:28.370Z,66.56
2018-06-23T00:16:28.436Z,67.53
2018-06-23T00:17:28.404Z,68.21
2018-06-23T00:18:28.429Z,70.53
2018-06-23T00:19:28.447Z,71.59
2018-06-23T00:20:28.471Z,71.26
2018-06-23T00:21:28.487Z,72.72
2018-06-23T00:22:28.510Z,73.26
2018-06-23T00:23:28.528Z,75.10
2018-06-23T00:24:28.548Z,76.16
2018-06-23T00:25:28.567Z,76.55
2018-06-23T00:26:28.591Z,76.61
2018-06-23T00:27:28.605Z,77.00
2018-06-23T00:28:28.646Z,77.76
2018-06-23T00:29:28.651Z,77.28
2018-06-23T00:30:28.669Z,77.48
2018-06-23T00:31:28.685Z,77.57
2018-06-23T00:32:28.708Z,78.06
2018-06-23T00:33:28.729Z,78.34
2018-06-23T00:34:28.746Z,78.06
2018-06-23T00:35:28.768Z,78.06
2018-06-23T00:36:28.787Z,78.25
2018-06-23T00:37:28.864Z,78.15
2018-06-23T00:38:28.828Z,77.48
2018-06-23T00:39:28.853Z,77.48
2018-06-23T00:40:28.920Z,77.19
2018-06-23T00:41:28.890Z,76.90
2018-06-23T00:42:28.904Z,77.48
2018-06-23T00:43:28.925Z,77.38
2018-06-23T00:44:28.943Z,77.48
2018-06-23T00:45:29.004Z,77.48
2018-06-23T00:46:29.038Z,77.38
2018-06-23T00:47:29.010Z,77.57
2018-06-23T00:48:29.024Z,77.44
2018-06-23T00:49:29.042Z,78.25
2018-06-23T00:50:29.061Z,78.02
2018-06-23T00:51:29.081Z,78.11
2018-06-23T00:52:29.104Z,77.63
2018-06-23T00:53:29.127Z,77.44
2018-06-23T00:54:29.144Z,77.44
2018-06-23T00:55:29.162Z,76.76
2018-06-23T00:56:29.183Z,76.95
2018-06-23T00:57:29.205Z,76.67
2018-06-23T00:58:29.224Z,76.12
2018-06-23T00:59:29.239Z,75.64
2018-06-23T01:00:29.262Z,75.06
2018-06-23T01:01:29.282Z,75.74
2018-06-23T01:02:29.302Z,75.64
2018-06-23T01:03:29.320Z,75.64
2018-06-23T01:04:29.340Z,75.74
2018-06-23T01:05:29.358Z,75.16
2018-06-23T01:06:29.378Z,75.06
2018-06-23T01:07:29.401Z,74.96
2018-06-23T01:08:29.438Z,74.96
2018-06-23T01:09:29.439Z,74.29
2018-06-23T01:10:29.509Z,74.10
2018-06-23T01:11:29.473Z,74.87
2018-06-23T01:12:29.497Z,74.13
2018-06-23T01:13:29.516Z,73.84
2018-06-23T01:14:29.532Z,73.61
2018-06-23T01:15:29.557Z,74.04
2018-06-23T01:16:29.572Z,73.46
2018-06-23T01:17:29.595Z,73.46
2018-06-23T01:18:29.615Z,73.84
2018-06-23T01:19:29.655Z,75.20
2018-06-23T01:20:29.663Z,74.32
2018-06-23T01:21:29.673Z,74.29
2018-06-23T01:22:29.697Z,73.94
2018-06-23T01:23:29.723Z,76.80
2018-06-23T01:24:29.730Z,74.58
2018-06-23T01:25:29.749Z,75.74
2018-06-23T01:26:29.767Z,75.12
2018-06-23T01:27:29.802Z,74.93
2018-06-23T01:28:29.864Z,74.83
2018-06-23T01:29:29.828Z,73.86
2018-06-23T01:30:29.854Z,74.29
2018-06-23T01:31:29.872Z,74.93
2018-06-23T01:32:29.891Z,75.60
2018-06-23T01:33:29.907Z,75.60
2018-06-23T01:34:29.979Z,74.93
2018-06-23T01:35:29.947Z,78.79
2018-06-23T01:36:29.977Z,81.78
2018-06-23T01:37:29.988Z,77.88
2018-06-23T01:38:30.010Z,78.75
2018-06-23T01:39:30.032Z,79.27
2018-06-23T01:40:30.050Z,78.11
2018-06-23T01:41:30.081Z,78.11
2018-06-23T01:42:30.091Z,78.11
2018-06-23T01:43:30.107Z,78.08
2018-06-23T01:44:30.130Z,77.30
2018-06-23T01:45:30.153Z,77.50
2018-06-23T01:46:30.165Z,77.88
2018-06-23T01:47:30.181Z,78.08
2018-06-23T01:48:30.206Z,78.66
2018-06-23T01:49:30.282Z,78.75
2018-06-23T01:50:30.248Z,78.66
2018-06-23T01:51:30.266Z,78.17
2018-06-23T01:52:30.284Z,78.94
2018-06-23T01:53:30.303Z,79.52
2018-06-23T01:54:30.325Z,79.43
2018-06-23T01:55:30.344Z,79.43
2018-06-23T01:56:30.363Z,81.84
2018-06-23T01:57:30.385Z,80.68
2018-06-23T01:58:30.454Z,80.39
2018-06-23T01:59:30.424Z,79.81
2018-06-23T02:00:30.442Z,79.62
2018-06-23T02:01:30.458Z,79.43
2018-06-23T02:02:30.482Z,79.62
2018-06-23T02:03:30.502Z,79.52
2018-06-23T02:04:30.520Z,79.91
2018-06-23T02:05:30.539Z,80.58
2018-06-23T02:06:30.566Z,80.39
2018-06-23T02:07:30.576Z,80.16
2018-06-23T02:08:30.601Z,81.41
2018-06-23T02:09:30.626Z,81.32
2018-06-23T02:10:30.642Z,84.01
2018-06-23T02:11:30.653Z,82.05
2018-06-23T02:12:30.675Z,82.82
2018-06-23T02:13:30.695Z,82.72
2018-06-23T02:14:30.716Z,82.62
2018-06-23T02:15:30.735Z,82.92
2018-06-23T02:16:30.757Z,82.62
2018-06-23T02:17:30.770Z,82.92
2018-06-23T02:18:30.791Z,83.50
2018-06-23T02:19:30.816Z,83.73
2018-06-23T02:20:30.829Z,82.67
2018-06-23T02:21:30.854Z,82.38
2018-06-23T02:22:30.918Z,81.41
2018-06-23T02:23:30.905Z,81.85
2018-06-23T02:24:30.907Z,82.24
2018-06-23T02:25:30.928Z,83.20
2018-06-23T02:26:30.952Z,85.91
2018-06-23T02:27:30.982Z,84.84
2018-06-23T02:28:31.038Z,83.78
2018-06-23T02:29:31.007Z,82.82
2018-06-23T02:30:31.038Z,82.43
2018-06-23T02:31:31.046Z,81.66
2018-06-23T02:32:31.067Z,82.34
2018-06-23T02:33:31.089Z,83.01
2018-06-23T02:34:31.152Z,83.50
2018-06-23T02:35:31.127Z,83.50
2018-06-23T02:36:31.151Z,82.34
2018-06-23T02:37:31.165Z,81.37
2018-06-23T02:38:31.182Z,81.12
2018-06-23T02:39:31.201Z,81.12
2018-06-23T02:40:31.219Z,82.14
2018-06-23T02:41:31.248Z,81.90
2018-06-23T02:42:31.259Z,82.67
2018-06-23T02:43:31.277Z,81.80
2018-06-23T02:44:31.298Z,81.66
2018-06-23T02:45:31.313Z,80.99
2018-06-23T02:46:31.388Z,81.27
2018-06-23T02:47:31.358Z,80.60
2018-06-23T02:48:31.378Z,80.02
2018-06-23T02:49:31.449Z,80.02
2018-06-23T02:50:31.416Z,79.83
2018-06-23T02:51:31.435Z,79.93
2018-06-23T02:52:31.506Z,79.83
2018-06-23T02:53:31.473Z,80.69
2018-06-23T02:54:31.497Z,80.69
2018-06-23T02:55:31.513Z,81.12
2018-06-23T02:56:31.534Z,81.51
2018-06-23T02:57:31.554Z,81.02
2018-06-23T02:58:31.621Z,81.90
2018-06-23T02:59:31.594Z,82.14
2018-06-23T03:00:31.605Z,81.47
2018-06-23T03:01:31.629Z,82.05
2018-06-23T03:02:31.659Z,82.43
2018-06-23T03:03:31.665Z,82.82
2018-06-23T03:04:31.734Z,81.57
2018-06-23T03:05:31.703Z,82.05
2018-06-23T03:06:31.720Z,82.14
2018-06-23T03:07:31.745Z,82.14
2018-06-23T03:08:31.763Z,81.76
2018-06-23T03:09:31.780Z,81.76
2018-06-23T03:10:31.840Z,82.14
2018-06-23T03:11:31.817Z,82.82
2018-06-23T03:12:31.847Z,81.76
2018-06-23T03:13:31.857Z,80.60
2018-06-23T03:14:31.878Z,80.99
2018-06-23T03:15:31.898Z,81.76
2018-06-23T03:16:31.970Z,81.57
2018-06-23T03:17:31.932Z,81.47
2018-06-23T03:18:31.956Z,81.76
2018-06-23T03:19:31.976Z,83.78
2018-06-23T03:20:31.993Z,84.46
2018-06-23T03:21:32.013Z,83.30
2018-06-23T03:22:32.027Z,83.94
2018-06-23T03:23:32.050Z,84.61
2018-06-23T03:24:32.067Z,84.52
2018-06-23T03:25:32.090Z,83.45
2018-06-23T03:26:32.107Z,82.78
2018-06-23T03:27:32.127Z,82.82
2018-06-23T03:28:32.146Z,82.43
2018-06-23T03:29:32.166Z,82.24
2018-06-23T03:30:32.195Z,82.24
2018-06-23T03:31:32.206Z,82.05
2018-06-23T03:32:32.220Z,81.62
2018-06-23T03:33:32.243Z,82.10
2018-06-23T03:34:32.311Z,81.91
2018-06-23T03:35:32.276Z,82.49
2018-06-23T03:36:32.297Z,81.91
2018-06-23T03:37:32.321Z,81.91
2018-06-23T03:38:32.339Z,83.16
2018-06-23T03:39:32.359Z,84.12
2018-06-23T03:40:32.378Z,84.61
2018-06-23T03:41:32.397Z,83.26
2018-06-23T03:42:32.416Z,82.68
2018-06-23T03:43:32.429Z,82.68
2018-06-23T03:44:32.456Z,82.14
2018-06-23T03:45:32.474Z,80.89
2018-06-23T03:46:32.493Z,81.57
2018-06-23T03:47:32.538Z,80.99
2018-06-23T03:48:32.526Z,80.99
2018-06-23T03:49:32.549Z,79.44
2018-06-23T03:50:32.565Z,80.12
2018-06-23T03:51:32.586Z,80.60
2018-06-23T03:52:32.679Z,81.27
2018-06-23T03:53:32.626Z,82.34
2018-06-23T03:54:32.643Z,82.39
2018-06-23T03:55:32.661Z,82.10
2018-06-23T03:56:32.682Z,82.39
2018-06-23T03:57:32.705Z,81.95
2018-06-23T03:58:32.721Z,81.66
2018-06-23T03:59:32.741Z,80.51
2018-06-23T04:00:32.771Z,80.41
2018-06-23T04:01:32.772Z,80.12
2018-06-23T04:02:32.793Z,80.12
2018-06-23T04:03:32.823Z,79.98
2018-06-23T04:04:32.833Z,81.04
2018-06-23T04:05:32.856Z,82.87
2018-06-23T04:06:32.871Z,83.26
2018-06-23T04:07:32.895Z,83.94
2018-06-23T04:08:32.912Z,84.22
2018-06-23T04:09:32.972Z,84.61
2018-06-23T04:10:32.952Z,83.94
2018-06-23T04:11:32.975Z,83.07
2018-06-23T04:12:32.992Z,82.49
2018-06-23T04:13:33.008Z,82.87
2018-06-23T04:14:33.029Z,83.26
2018-06-23T04:15:33.039Z,82.29
2018-06-23T04:16:33.084Z,83.36
2018-06-23T04:17:33.082Z,82.59
2018-06-23T04:18:33.100Z,83.26
2018-06-23T04:19:33.115Z,83.64
2018-06-23T04:20:33.140Z,83.26
2018-06-23T04:21:33.157Z,84.42
2018-06-23T04:22:33.226Z,84.90
2018-06-23T04:23:33.200Z,83.74
2018-06-23T04:24:33.214Z,83.16
2018-06-23T04:25:33.229Z,83.64
2018-06-23T04:26:33.258Z,83.55
2018-06-23T04:27:33.272Z,83.26
2018-06-23T04:28:33.336Z,83.64
2018-06-23T04:29:33.307Z,83.26
2018-06-23T04:30:33.327Z,82.93
2018-06-23T04:31:33.346Z,83.89
2018-06-23T04:32:33.365Z,83.26
2018-06-23T04:33:33.449Z,82.64
2018-06-23T04:34:33.405Z,83.22
2018-06-23T04:35:33.427Z,84.32
2018-06-23T04:36:33.442Z,84.56
2018-06-23T04:37:33.456Z,83.51
2018-06-23T04:38:33.480Z,83.99
2018-06-23T04:39:33.553Z,83.70
2018-06-23T04:40:33.517Z,84.28
2018-06-23T04:41:33.537Z,84.56
2018-06-23T04:42:33.601Z,84.76
2018-06-23T04:43:33.573Z,84.38
2018-06-23T04:44:33.593Z,83.22
2018-06-23T04:45:33.659Z,83.31
2018-06-23T04:46:33.629Z,83.80
2018-06-23T04:47:33.649Z,83.55
2018-06-23T04:48:33.665Z,83.55
2018-06-23T04:49:33.683Z,84.32
2018-06-23T04:50:33.703Z,83.74
2018-06-23T04:51:33.729Z,83.94
2018-06-23T04:52:33.748Z,83.84
2018-06-23T04:53:33.758Z,84.12
2018-06-23T04:54:33.779Z,84.61
2018-06-23T04:55:33.800Z,83.22
2018-06-23T04:56:33.823Z,83.26
2018-06-23T04:57:33.836Z,84.28
2018-06-23T04:58:33.855Z,84.76
2018-06-23T04:59:33.880Z,86.21
2018-06-23T05:00:33.919Z,85.34
2018-06-23T05:01:33.915Z,84.95
2018-06-23T05:02:33.933Z,85.10
2018-06-23T05:03:33.998Z,86.07
2018-06-23T05:04:33.966Z,85.87
2018-06-23T05:05:33.993Z,84.53
2018-06-23T05:06:34.003Z,84.72
2018-06-23T05:07:34.027Z,84.47
2018-06-23T05:08:34.047Z,83.85
2018-06-23T05:09:34.114Z,83.89
2018-06-23T05:10:34.083Z,83.31
2018-06-23T05:11:34.100Z,84.47
2018-06-23T05:12:34.119Z,84.66
2018-06-23T05:13:34.134Z,85.05
2018-06-23T05:14:34.157Z,84.05
2018-06-23T05:15:34.173Z,84.76
2018-06-23T05:16:34.193Z,84.56
2018-06-23T05:17:34.216Z,84.18
2018-06-23T05:18:34.233Z,84.95
2018-06-23T05:19:34.255Z,85.53
2018-06-23T05:20:34.274Z,85.24
2018-06-23T05:21:34.335Z,86.11
2018-06-23T05:22:34.306Z,86.01
2018-06-23T05:23:34.326Z,85.91
2018-06-23T05:24:34.345Z,85.82
2018-06-23T05:25:34.360Z,85.82
2018-06-23T05:26:34.381Z,85.91
2018-06-23T05:27:34.405Z,86.30
2018-06-23T05:28:34.416Z,86.30
2018-06-23T05:29:34.444Z,87.17
2018-06-23T05:30:34.462Z,86.78
2018-06-23T05:31:34.479Z,86.59
2018-06-23T05:32:34.495Z,86.49
2018-06-23T05:33:34.529Z,86.88
2018-06-23T05:34:34.529Z,87.46
2018-06-23T05:35:34.555Z,87.74
2018-06-23T05:36:34.571Z,87.55
2018-06-23T05:37:34.593Z,87.26
2018-06-23T05:38:34.605Z,86.88
2018-06-23T05:39:34.647Z,86.63
2018-06-23T05:40:34.647Z,84.99
2018-06-23T05:41:34.666Z,85.77
2018-06-23T05:42:34.678Z,84.70
2018-06-23T05:43:34.697Z,85.09
2018-06-23T05:44:34.723Z,84.42
2018-06-23T05:45:34.784Z,83.84
2018-06-23T05:46:34.756Z,84.42
2018-06-23T05:47:34.779Z,82.34
2018-06-23T05:48:34.807Z,82.82
2018-06-23T05:49:34.814Z,82.72
2018-06-23T05:50:34.831Z,82.53
2018-06-23T05:51:34.903Z,82.14
2018-06-23T05:52:34.869Z,82.09
2018-06-23T05:53:34.891Z,81.41
2018-06-23T05:54:34.908Z,81.80
2018-06-23T05:55:34.926Z,81.99
2018-06-23T05:56:34.946Z,82.34
2018-06-23T05:57:34.962Z,82.43
2018-06-23T05:58:34.988Z,82.72
2018-06-23T05:59:34.998Z,83.15
2018-06-23T06:00:35.038Z,83.50
2018-06-23T06:01:35.043Z,83.30
2018-06-23T06:02:35.060Z,83.34
2018-06-23T06:03:35.084Z,83.15
2018-06-23T06:04:35.099Z,82.86
2018-06-23T06:05:35.145Z,83.15
2018-06-23T06:06:35.136Z,82.86
2018-06-23T06:07:35.152Z,82.86
2018-06-23T06:08:35.171Z,83.25
2018-06-23T06:09:35.192Z,83.44
2018-06-23T06:10:35.211Z,83.25
2018-06-23T06:11:35.279Z,83.20
2018-06-23T06:12:35.252Z,83.44
2018-06-23T06:13:35.265Z,83.44
2018-06-23T06:14:35.312Z,83.53
2018-06-23T06:15:35.364Z,83.15
2018-06-23T06:16:35.325Z,82.48
2018-06-23T06:17:35.341Z,83.53
2018-06-23T06:18:35.375Z,83.96
2018-06-23T06:19:35.383Z,84.89
2018-06-23T06:20:35.411Z,83.44
2018-06-23T06:21:35.474Z,82.96
2018-06-23T06:22:35.445Z,83.34
2018-06-23T06:23:35.463Z,82.86
2018-06-23T06:24:35.480Z,83.34
2018-06-23T06:25:35.497Z,83.53
2018-06-23T06:26:35.518Z,83.63
2018-06-23T06:27:35.586Z,83.58
2018-06-23T06:28:35.554Z,83.96
2018-06-23T06:29:35.593Z,83.67
2018-06-23T06:30:35.596Z,82.23
2018-06-23T06:31:35.715Z,82.03
2018-06-23T06:32:35.644Z,82.03
2018-06-23T06:33:35.707Z,81.55
2018-06-23T06:34:35.678Z,81.16
2018-06-23T06:35:35.806Z,81.49
2018-06-23T06:36:35.714Z,80.62
2018-06-23T06:37:35.732Z,79.95
2018-06-23T06:38:35.813Z,80.24
2018-06-23T06:39:35.823Z,80.14
2018-06-23T06:40:35.793Z,80.28
2018-06-23T06:41:35.806Z,79.60
2018-06-23T06:42:35.842Z,79.02
2018-06-23T06:43:35.851Z,79.60
2018-06-23T06:44:35.886Z,78.77
2018-06-23T06:45:35.937Z,78.19
2018-06-23T06:46:35.910Z,77.42
2018-06-23T06:47:35.930Z,77.13
2018-06-23T06:48:35.942Z,76.74
2018-06-23T06:49:35.967Z,76.26
2018-06-23T06:50:35.996Z,76.59
2018-06-23T06:51:36.006Z,76.39
2018-06-23T06:52:36.027Z,76.87
2018-06-23T06:53:36.046Z,76.49
2018-06-23T06:54:36.158Z,76.78
2018-06-23T06:55:36.087Z,77.01
2018-06-23T06:56:36.100Z,75.95
2018-06-23T06:57:36.174Z,75.95
2018-06-23T06:58:36.145Z,74.05
2018-06-23T06:59:36.158Z,73.95
2018-06-23T07:00:36.182Z,74.05
2018-06-23T07:01:36.205Z,74.43
2018-06-23T07:02:36.229Z,74.05
2018-06-23T07:03:36.365Z,73.72
2018-06-23T07:04:36.258Z,74.21
2018-06-23T07:05:36.282Z,73.63
2018-06-23T07:06:36.304Z,74.40
2018-06-23T07:07:36.321Z,74.30
2018-06-23T07:08:36.346Z,73.63
2018-06-23T07:09:36.413Z,73.18
2018-06-23T07:10:36.389Z,73.37
2018-06-23T07:11:36.409Z,73.47
2018-06-23T07:12:36.491Z,73.27
2018-06-23T07:13:36.441Z,73.72
2018-06-23T07:14:36.464Z,73.75
2018-06-23T07:15:36.517Z,72.98
2018-06-23T07:16:36.506Z,73.08
2018-06-23T07:17:36.557Z,72.60
2018-06-23T07:18:36.545Z,72.63
2018-06-23T07:19:36.565Z,72.40
2018-06-23T07:20:36.586Z,72.05
2018-06-23T07:21:36.609Z,72.50
2018-06-23T07:22:36.631Z,72.89
2018-06-23T07:23:36.858Z,72.40
2018-06-23T07:24:36.665Z,72.30
2018-06-23T07:25:36.688Z,72.21
2018-06-23T07:26:36.709Z,72.69
2018-06-23T07:27:36.740Z,72.98
2018-06-23T07:28:36.760Z,73.11
2018-06-23T07:29:36.808Z,72.83
2018-06-23T07:30:36.793Z,72.24
2018-06-23T07:31:36.844Z,72.92
2018-06-23T07:32:36.830Z,71.95
2018-06-23T07:33:36.905Z,71.66
2018-06-23T07:34:37.088Z,70.83
2018-06-23T07:35:36.900Z,72.86
2018-06-23T07:36:36.919Z,72.02
2018-06-23T07:37:36.938Z,69.41
2018-06-23T07:38:36.958Z,70.28
2018-06-23T07:39:36.983Z,70.03
2018-06-23T07:40:37.047Z,68.96
2018-06-23T07:41:37.023Z,68.96
2018-06-23T07:42:37.118Z,68.57
2018-06-23T07:43:37.060Z,69.86
2018-06-23T07:44:37.079Z,69.38
2018-06-23T07:45:37.102Z,69.09
2018-06-23T07:46:37.178Z,68.15
2018-06-23T07:47:37.148Z,66.60
2018-06-23T07:48:37.167Z,67.02
2018-06-23T07:49:37.190Z,65.82
2018-06-23T07:50:37.214Z,66.69
2018-06-23T07:51:37.237Z,66.63
2018-06-23T07:52:37.266Z,66.92
2018-06-23T07:53:37.278Z,65.98
2018-06-23T07:54:37.295Z,65.11
2018-06-23T07:55:37.318Z,65.14
2018-06-23T07:56:37.341Z,64.07
2018-06-23T07:57:37.365Z,63.29
2018-06-23T07:58:37.594Z,64.04
2018-06-23T07:59:37.609Z,64.23
2018-06-23T08:00:37.864Z,65.75
2018-06-23T08:02:37.469Z,67.24
2018-06-23T08:03:37.547Z,65.69
2018-06-23T08:04:37.514Z,65.82
2018-06-23T08:05:37.537Z,63.97
2018-06-23T08:06:37.561Z,64.81
2018-06-23T08:07:37.583Z,65.30
2018-06-23T08:08:37.601Z,65.53
2018-06-23T08:09:37.631Z,65.14
2018-06-23T08:10:37.649Z,63.78
2018-06-23T08:11:37.712Z,63.59
2018-06-23T08:12:37.785Z,63.94
2018-06-23T08:13:37.714Z,65.37
2018-06-23T08:14:37.738Z,65.47
2018-06-23T08:15:37.764Z,65.98
2018-06-23T08:16:37.782Z,66.02
2018-06-23T08:17:37.803Z,65.92
2018-06-23T08:18:37.839Z,66.66
2018-06-23T08:19:37.853Z,67.05
2018-06-23T08:20:37.873Z,66.21
2018-06-23T08:21:37.896Z,66.50
2018-06-23T08:22:37.918Z,66.02
2018-06-23T08:23:37.941Z,65.63
2018-06-23T08:24:37.964Z,65.33
2018-06-23T08:25:38.047Z,65.85
2018-06-23T08:26:38.062Z,66.40
2018-06-23T08:27:38.083Z,67.21
2018-06-23T08:28:38.052Z,66.63
2018-06-23T08:29:38.068Z,68.44
2018-06-23T08:30:38.090Z,67.86
2018-06-23T08:31:38.114Z,67.80
2018-06-23T08:32:38.138Z,66.53
2018-06-23T08:33:38.209Z,67.44
2018-06-23T08:34:38.183Z,67.15
2018-06-23T08:35:38.203Z,65.63
2018-06-23T08:36:38.229Z,65.17
2018-06-23T08:37:38.376Z,63.71
2018-06-23T08:38:38.267Z,64.00
2018-06-23T08:39:38.294Z,62.74
2018-06-23T08:40:38.312Z,62.84
2018-06-23T08:41:38.333Z,61.38
2018-06-23T08:42:38.356Z,61.35
2018-06-23T08:43:38.421Z,62.87
2018-06-23T08:44:38.402Z,62.58
2018-06-23T08:45:38.431Z,62.45
2018-06-23T08:46:38.446Z,61.87
2018-06-23T08:47:38.478Z,62.45
2018-06-23T08:48:38.493Z,62.09
2018-06-23T08:49:38.518Z,61.93
2018-06-23T08:50:38.544Z,59.13
2018-06-23T08:51:38.614Z,59.42
2018-06-23T08:52:38.588Z,60.70
2018-06-23T08:53:38.608Z,61.44
2018-06-23T08:54:38.630Z,60.77
2018-06-23T08:55:38.656Z,61.44
2018-06-23T08:56:38.753Z,61.54
2018-06-23T08:57:38.752Z,62.35
2018-06-23T08:58:38.722Z,62.10
2018-06-23T08:59:38.740Z,62.61
2018-06-23T09:00:38.782Z,62.32
2018-06-23T09:01:38.794Z,62.61
2018-06-23T09:02:38.847Z,62.93
2018-06-23T09:03:38.889Z,62.35
2018-06-23T09:04:38.862Z,63.87
2018-06-23T09:05:38.884Z,64.49
2018-06-23T09:06:38.905Z,65.17
2018-06-23T09:07:38.925Z,65.14
2018-06-23T09:08:39.042Z,66.02
2018-06-23T09:09:39.031Z,67.21
2018-06-23T09:10:39.001Z,66.66
2018-06-23T09:11:39.019Z,65.01
2018-06-23T09:12:39.049Z,64.88
2018-06-23T09:13:39.139Z,67.08
2018-06-23T09:14:39.087Z,68.48
2018-06-23T09:15:39.164Z,68.18
2018-06-23T09:16:39.131Z,68.25
2018-06-23T09:17:39.150Z,67.02
2018-06-23T09:18:39.177Z,66.14
2018-06-23T09:19:39.251Z,64.42
2018-06-23T09:20:39.223Z,64.42
2018-06-23T09:21:39.442Z,63.06
2018-06-23T09:22:39.268Z,63.55
2018-06-23T09:23:39.286Z,65.50
2018-06-23T09:24:39.310Z,64.78
2018-06-23T09:25:39.333Z,64.04
2018-06-23T09:26:39.366Z,64.94
2018-06-23T09:27:39.466Z,62.83
2018-06-23T09:28:39.411Z,62.83
2018-06-23T09:29:39.424Z,62.38
2018-06-23T09:30:39.452Z,60.88
2018-06-23T09:31:39.470Z,61.27
2018-06-23T09:32:39.499Z,61.27
2018-06-23T09:33:39.530Z,62.70
2018-06-23T09:34:39.539Z,63.48
2018-06-23T09:35:39.563Z,63.58
2018-06-23T09:36:39.591Z,62.22
2018-06-23T09:37:39.614Z,64.29
2018-06-23T09:38:39.641Z,63.03
2018-06-23T09:39:39.711Z,61.80
2018-06-23T09:40:39.687Z,61.31
2018-06-23T09:41:39.752Z,61.31
2018-06-23T09:42:39.725Z,59.95
2018-06-23T09:43:39.752Z,59.66
2018-06-23T09:44:39.776Z,60.31
2018-06-23T09:45:39.802Z,60.60
2018-06-23T09:46:39.831Z,61.47
2018-06-23T09:47:39.848Z,61.02
2018-06-23T09:48:39.876Z,60.75
2018-06-23T09:49:39.891Z,59.78
2018-06-23T09:50:39.914Z,58.61
2018-06-23T09:51:39.937Z,59.49
2018-06-23T09:52:39.964Z,59.78
2018-06-23T09:53:39.984Z,59.17
2018-06-23T09:54:40.010Z,58.94
2018-06-23T09:55:40.029Z,57.54
2018-06-23T09:56:40.058Z,58.97
2018-06-23T09:57:40.074Z,59.10
2018-06-23T09:58:40.157Z,58.61
2018-06-23T09:59:40.117Z,58.87
2018-06-23T10:00:40.145Z,58.03
2018-06-23T10:01:40.165Z,58.13
2018-06-23T10:02:40.185Z,59.46
2018-06-23T10:03:40.267Z,58.32
2018-06-23T10:04:40.299Z,57.93
2018-06-23T10:05:40.259Z,59.17
2018-06-23T10:06:40.287Z,59.56
2018-06-23T10:07:40.308Z,58.32
2018-06-23T10:08:40.331Z,58.13
2018-06-23T10:09:40.349Z,58.15
2018-06-23T10:10:40.369Z,57.96
2018-06-23T10:11:40.396Z,58.22
2018-06-23T10:12:40.419Z,58.81
2018-06-23T10:13:40.440Z,57.70
2018-06-23T10:14:40.463Z,58.48
2018-06-23T10:15:40.488Z,57.65
2018-06-23T10:16:40.513Z,56.48
2018-06-23T10:17:40.537Z,57.86
2018-06-23T10:18:40.555Z,57.53
2018-06-23T10:19:40.583Z,56.38
2018-06-23T10:20:40.602Z,55.24
2018-06-23T10:21:40.676Z,55.18
2018-06-23T10:22:40.646Z,54.59
2018-06-23T10:23:40.676Z,53.81
2018-06-23T10:24:40.699Z,55.54
2018-06-23T10:25:40.719Z,55.24
2018-06-23T10:26:40.745Z,55.18
2018-06-23T10:27:40.827Z,55.20
2018-06-23T10:28:40.796Z,53.27
2018-06-23T10:29:40.868Z,53.71
2018-06-23T10:30:40.842Z,54.88
2018-06-23T10:31:40.862Z,53.17
2018-06-23T10:32:40.889Z,53.15
2018-06-23T10:33:40.968Z,54.98
2018-06-23T10:34:40.934Z,55.15
2018-06-23T10:35:40.964Z,56.20
2018-06-23T10:36:40.983Z,57.89
2018-06-23T10:37:41.008Z,56.36
2018-06-23T10:38:41.104Z,55.63
2018-06-23T10:39:41.059Z,55.63
2018-06-23T10:40:41.082Z,54.98
2018-06-23T10:41:41.112Z,54.98
2018-06-23T10:42:41.129Z,54.98
2018-06-23T10:43:41.152Z,54.95
2018-06-23T10:44:41.177Z,55.51
2018-06-23T10:45:41.253Z,54.98
2018-06-23T10:46:41.227Z,54.07
2018-06-23T10:47:41.253Z,55.12
2018-06-23T10:48:41.279Z,58.09
2018-06-23T10:49:41.303Z,56.77
2018-06-23T10:50:41.330Z,56.45
2018-06-23T10:51:41.353Z,54.86
2018-06-23T10:52:41.377Z,51.78
2018-06-23T10:53:41.395Z,50.20
2018-06-23T10:54:41.423Z,51.37
2018-06-23T10:55:41.445Z,50.88
2018-06-23T10:56:41.469Z,50.66
2018-06-23T10:57:41.550Z,52.20
2018-06-23T10:58:41.521Z,54.07
2018-06-23T10:59:41.544Z,52.80
2018-06-23T11:00:41.569Z,52.54
2018-06-23T11:01:41.591Z,51.49
2018-06-23T11:02:41.617Z,52.61
2018-06-23T11:03:41.640Z,54.24
2018-06-23T11:04:41.692Z,57.14
2018-06-23T11:05:41.687Z,57.21
2018-06-23T11:06:41.716Z,57.99
2018-06-23T11:07:41.741Z,57.07
2018-06-23T11:08:41.764Z,56.38
2018-06-23T11:09:41.786Z,58.15
2018-06-23T11:10:41.810Z,58.02
2018-06-23T11:11:41.839Z,57.75
2018-06-23T11:12:41.903Z,57.50
2018-06-23T11:13:41.884Z,59.42
2018-06-23T11:14:41.908Z,61.34
2018-06-23T11:15:41.982Z,61.05
2018-06-23T11:16:41.963Z,60.66
2018-06-23T11:17:41.989Z,62.93
2018-06-23T11:18:42.005Z,63.81
2018-06-23T11:19:42.077Z,63.62
2018-06-23T11:20:42.055Z,63.42
2018-06-23T11:21:42.090Z,62.38
2018-06-23T11:22:42.101Z,60.72
2018-06-23T11:23:42.128Z,58.60
2018-06-23T11:24:42.148Z,58.24
2018-06-23T11:25:42.172Z,56.41
2018-06-23T11:26:42.202Z,55.08
2018-06-23T11:27:42.219Z,53.86
2018-06-23T11:28:42.259Z,54.95
2018-06-23T11:29:42.518Z,57.79
2018-06-23T11:30:42.295Z,59.10
2018-06-23T11:31:42.318Z,60.95
2018-06-23T11:32:42.338Z,61.08
2018-06-23T11:33:42.363Z,62.90
2018-06-23T11:34:42.382Z,62.58
2018-06-23T11:35:42.408Z,63.26
2018-06-23T11:36:42.439Z,63.07
2018-06-23T11:37:42.457Z,62.68
2018-06-23T11:38:42.481Z,63.71
2018-06-23T11:39:42.555Z,63.71
2018-06-23T11:40:42.534Z,64.40
2018-06-23T11:41:42.556Z,63.68
2018-06-23T11:42:42.572Z,64.20
2018-06-23T11:43:42.647Z,61.02
2018-06-23T11:44:42.617Z,62.77
2018-06-23T11:45:42.644Z,60.88
2018-06-23T11:46:42.664Z,60.10
2018-06-23T11:47:42.685Z,58.87
2018-06-23T11:48:42.756Z,58.22
2018-06-23T11:49:42.736Z,59.56
2018-06-23T11:50:42.760Z,59.88
2018-06-23T11:51:42.779Z,58.15
2018-06-23T11:52:42.801Z,58.42
2018-06-23T11:53:42.874Z,58.91
2018-06-23T11:54:42.873Z,61.83
2018-06-23T11:55:42.930Z,61.51
2018-06-23T11:56:42.930Z,61.47
2018-06-23T11:57:42.980Z,61.83
2018-06-23T11:58:42.944Z,63.26
2018-06-23T11:59:42.966Z,61.25
2018-06-23T12:00:42.995Z,62.13
2018-06-23T12:01:43.088Z,62.13
2018-06-23T12:02:43.036Z,61.77
2018-06-23T12:03:43.060Z,62.29
2018-06-23T12:04:43.086Z,63.42
2018-06-23T12:05:43.109Z,64.40
2018-06-23T12:06:43.132Z,64.49
2018-06-23T12:07:43.162Z,62.97
2018-06-23T12:08:43.177Z,63.04
2018-06-23T12:09:43.244Z,63.29
2018-06-23T12:10:43.217Z,65.27
2018-06-23T12:11:43.247Z,64.11
2018-06-23T12:12:43.263Z,64.49
2018-06-23T12:13:43.289Z,64.14
2018-06-23T12:14:43.313Z,63.65
2018-06-23T12:15:43.335Z,62.58
2018-06-23T12:16:43.354Z,63.10
2018-06-23T12:17:43.382Z,63.71
2018-06-23T12:18:43.399Z,63.36
2018-06-23T12:19:43.426Z,61.77
2018-06-23T12:20:43.465Z,60.53
2018-06-23T12:21:43.520Z,59.59
2018-06-23T12:22:43.492Z,60.14
2018-06-23T12:23:43.514Z,60.38
2018-06-23T12:24:43.539Z,63.42
2018-06-23T12:25:43.561Z,62.81
2018-06-23T12:26:43.586Z,62.38
2018-06-23T12:27:43.664Z,63.59
2018-06-23T12:28:43.637Z,65.30
2018-06-23T12:29:43.658Z,66.53
2018-06-23T12:30:43.680Z,66.56
2018-06-23T12:31:43.695Z,66.30
2018-06-23T12:32:43.718Z,67.50
2018-06-23T12:33:43.791Z,67.18
2018-06-23T12:34:43.763Z,68.18
2018-06-23T12:35:43.784Z,67.24
2018-06-23T12:36:43.807Z,65.37
2018-06-23T12:37:43.828Z,61.87
2018-06-23T12:38:43.862Z,60.34
2018-06-23T12:39:43.877Z,59.20
2018-06-23T12:40:43.895Z,57.47
2018-06-23T12:41:44.053Z,56.46
2018-06-23T12:42:43.939Z,55.09
2018-06-23T12:43:43.966Z,54.73
2018-06-23T12:44:43.988Z,55.02
2018-06-23T12:45:44.010Z,54.83
2018-06-23T12:46:44.039Z,54.70
2018-06-23T12:47:44.057Z,54.77
2018-06-23T12:48:44.080Z,55.16
2018-06-23T12:49:44.103Z,55.85
2018-06-23T12:50:44.127Z,54.90
2018-06-23T12:51:44.155Z,55.09
2018-06-23T12:52:44.172Z,55.09
2018-06-23T12:53:44.197Z,55.02